createdAt,value
2019-01-11T00:00:25.171Z,1.80
2019-01-11T00:02:51.545Z,1.70
2019-01-11T00:05:19.685Z,1.80
2019-01-11T00:07:46.162Z,1.80
2019-01-11T00:10:12.963Z,1.70
2019-01-11T00:12:39.439Z,1.70
2019-01-11T00:15:06.262Z,1.60
2019-01-11T00:17:33.067Z,1.60
2019-01-11T00:20:03.458Z,1.70
2019-01-11T00:22:28.392Z,1.70
2019-01-11T00:24:55.012Z,1.70
2019-01-11T00:27:21.632Z,1.60
2019-01-11T00:29:48.138Z,1.60
2019-01-11T00:32:14.656Z,1.60
2019-01-11T00:34:41.255Z,1.60
2019-01-11T00:37:07.802Z,1.60
2019-01-11T00:39:34.235Z,1.70
2019-01-11T00:42:00.652Z,1.70
2019-01-11T00:44:27.143Z,1.70
2019-01-11T00:46:53.690Z,1.70
2019-01-11T00:49:20.181Z,1.70
2019-01-11T00:51:46.836Z,1.80
2019-01-11T00:54:13.429Z,1.70
2019-01-11T00:56:39.974Z,1.70
2019-01-11T00:59:06.450Z,1.70
2019-01-11T01:01:33.140Z,1.70
2019-01-11T01:03:59.670Z,1.70
2019-01-11T01:06:26.267Z,1.80
2019-01-11T01:08:52.937Z,1.80
2019-01-11T01:11:19.625Z,1.70
2019-01-11T01:13:46.243Z,1.70
2019-01-11T01:16:12.947Z,1.70
2019-01-11T01:18:39.795Z,1.70
2019-01-11T01:21:06.395Z,1.80
2019-01-11T01:23:33.129Z,1.50
2019-01-11T01:25:59.745Z,1.70
2019-01-11T01:28:26.370Z,1.70
2019-01-11T01:30:52.997Z,1.70
2019-01-11T01:33:19.508Z,1.70
2019-01-11T01:35:46.127Z,1.80
2019-01-11T01:38:12.760Z,1.80
2019-01-11T01:40:39.364Z,1.80
2019-01-11T01:43:05.990Z,1.60
2019-01-11T01:45:33.535Z,2.00
2019-01-11T01:48:00.173Z,1.80
2019-01-11T01:50:26.649Z,1.80
2019-01-11T01:52:53.166Z,1.90
2019-01-11T01:55:19.672Z,1.90
2019-01-11T01:57:46.310Z,1.90
2019-01-11T02:00:16.314Z,1.90
2019-01-11T02:02:43.080Z,1.90
2019-01-11T02:05:09.770Z,1.90
2019-01-11T02:07:36.396Z,1.90
2019-01-11T02:10:06.247Z,2.00
2019-01-11T02:12:32.632Z,1.90
2019-01-11T02:14:59.149Z,1.90
2019-01-11T02:17:25.658Z,1.90
2019-01-11T02:19:52.106Z,1.90
2019-01-11T02:22:18.715Z,1.90
2019-01-11T02:24:45.345Z,1.90
2019-01-11T02:27:11.922Z,1.90
2019-01-11T02:29:38.562Z,1.90
2019-01-11T02:32:05.186Z,1.90
2019-01-11T02:34:31.841Z,2.00
2019-01-11T02:36:58.433Z,1.90
2019-01-11T02:39:24.840Z,2.00
2019-01-11T02:41:51.374Z,2.00
2019-01-11T02:44:17.769Z,2.00
2019-01-11T02:46:44.377Z,2.00
2019-01-11T02:49:10.917Z,2.00
2019-01-11T02:51:37.534Z,2.10
2019-01-11T02:54:04.295Z,2.00
2019-01-11T02:56:30.889Z,2.00
2019-01-11T02:58:57.567Z,2.00
2019-01-11T03:01:24.202Z,2.00
2019-01-11T03:03:50.806Z,2.00
2019-01-11T03:06:17.427Z,2.00
2019-01-11T03:08:44.021Z,2.00
2019-01-11T03:11:12.689Z,2.00
2019-01-11T03:13:39.283Z,2.00
2019-01-11T03:16:05.981Z,2.00
2019-01-11T03:18:32.616Z,2.00
2019-01-11T03:21:00.251Z,2.00
2019-01-11T03:23:26.844Z,2.00
2019-01-11T03:25:53.486Z,2.00
2019-01-11T03:28:20.134Z,2.00
2019-01-11T03:30:46.782Z,2.00
2019-01-11T03:33:13.280Z,2.00
2019-01-11T03:35:40.027Z,2.00
2019-01-11T03:38:06.738Z,2.00
2019-01-11T03:40:33.362Z,2.10
2019-01-11T03:42:59.959Z,2.00
2019-01-11T03:45:26.601Z,2.10
2019-01-11T03:47:53.208Z,2.10
2019-01-11T03:50:20.446Z,2.10
2019-01-11T03:52:47.351Z,2.10
2019-01-11T03:55:14.452Z,2.20
2019-01-11T03:57:42.024Z,2.20
2019-01-11T04:00:12.107Z,2.20
2019-01-11T04:02:38.738Z,2.20
2019-01-11T04:05:09.969Z,2.40
2019-01-11T04:07:36.432Z,2.20
2019-01-11T04:10:06.691Z,2.20
2019-01-11T04:12:33.210Z,2.20
2019-01-11T04:14:59.723Z,2.20
2019-01-11T04:17:26.348Z,2.30
2019-01-11T04:19:52.879Z,2.30
2019-01-11T04:22:21.289Z,2.30
2019-01-11T04:24:55.679Z,2.20
2019-01-11T04:27:22.158Z,2.30
2019-01-11T04:29:48.616Z,2.30
2019-01-11T04:32:15.200Z,2.40
2019-01-11T04:34:41.919Z,2.30
2019-01-11T04:37:08.526Z,2.30
2019-01-11T04:39:35.024Z,2.30
2019-01-11T04:42:01.529Z,2.40
2019-01-11T04:44:28.132Z,2.40
2019-01-11T04:46:54.731Z,2.30
2019-01-11T04:49:21.496Z,2.40
2019-01-11T04:51:48.030Z,2.30
2019-01-11T04:54:14.648Z,2.40
2019-01-11T04:56:41.274Z,2.40
2019-01-11T04:59:07.805Z,2.40
2019-01-11T05:01:35.203Z,2.40
2019-01-11T05:04:02.177Z,2.40
2019-01-11T05:06:28.761Z,2.40
2019-01-11T05:08:55.379Z,2.50
2019-01-11T05:11:21.997Z,2.50
2019-01-11T05:13:49.910Z,2.40
2019-01-11T05:16:16.837Z,2.70
2019-01-11T05:18:43.333Z,2.50
2019-01-11T05:21:09.928Z,2.50
2019-01-11T05:23:36.383Z,2.50
2019-01-11T05:26:03.216Z,2.70
2019-01-11T05:28:29.720Z,2.50
2019-01-11T05:30:57.137Z,2.60
2019-01-11T05:33:23.720Z,2.60
2019-01-11T05:35:50.427Z,2.60
2019-01-11T05:38:16.812Z,2.60
2019-01-11T05:40:43.463Z,2.60
2019-01-11T05:43:10.031Z,2.60
2019-01-11T05:45:36.548Z,2.60
2019-01-11T05:48:03.216Z,2.60
2019-01-11T05:50:29.871Z,2.70
2019-01-11T05:52:57.702Z,2.60
2019-01-11T05:55:26.126Z,2.60
2019-01-11T05:58:10.982Z,2.60
2019-01-11T06:00:37.716Z,2.60
2019-01-11T06:03:04.422Z,2.60
2019-01-11T06:05:31.045Z,2.70
2019-01-11T06:07:59.553Z,2.70
2019-01-11T06:10:26.147Z,2.70
2019-01-11T06:12:52.734Z,2.70
2019-01-11T06:15:19.307Z,2.70
2019-01-11T06:17:45.937Z,2.70
2019-01-11T06:20:14.122Z,2.70
2019-01-11T06:22:41.909Z,2.70
2019-01-11T06:25:08.405Z,2.70
2019-01-11T06:27:35.147Z,2.70
2019-01-11T06:30:03.003Z,2.80
2019-01-11T06:32:29.427Z,2.80
2019-01-11T06:34:56.011Z,2.80
2019-01-11T06:37:22.529Z,2.80
2019-01-11T06:39:49.074Z,2.80
2019-01-11T06:42:17.618Z,2.80
2019-01-11T06:44:44.021Z,2.70
2019-01-11T06:47:12.247Z,2.90
2019-01-11T06:49:38.743Z,2.80
2019-01-11T06:52:05.467Z,2.80
2019-01-11T06:54:32.061Z,2.80
2019-01-11T06:56:58.753Z,3.00
2019-01-11T06:59:25.369Z,2.80
2019-01-11T07:01:51.897Z,2.90
2019-01-11T07:04:18.487Z,2.90
2019-01-11T07:06:45.407Z,2.90
2019-01-11T07:09:12.024Z,2.90
2019-01-11T07:11:38.656Z,3.00
2019-01-11T07:14:05.261Z,3.00
2019-01-11T07:16:31.774Z,3.00
2019-01-11T07:18:58.404Z,2.90
2019-01-11T07:21:25.071Z,3.00
2019-01-11T07:23:51.638Z,3.00
2019-01-11T07:26:18.201Z,3.10
2019-01-11T07:28:46.639Z,3.00
2019-01-11T07:31:13.260Z,3.00
2019-01-11T07:33:39.912Z,3.00
2019-01-11T07:36:14.125Z,3.00
2019-01-11T07:38:40.537Z,3.00
2019-01-11T07:41:07.130Z,3.00
2019-01-11T07:43:33.547Z,3.00
2019-01-11T07:46:02.075Z,3.10
2019-01-11T07:48:28.494Z,3.20
2019-01-11T07:50:55.763Z,3.10
2019-01-11T07:53:23.836Z,3.30
2019-01-11T07:55:50.363Z,3.10
2019-01-11T07:58:16.753Z,3.10
2019-01-11T08:00:43.232Z,3.20
2019-01-11T08:03:09.982Z,3.20
2019-01-11T08:05:36.448Z,3.20
2019-01-11T08:08:03.323Z,3.20
2019-01-11T08:10:29.718Z,3.20
2019-01-11T08:12:56.234Z,3.20
2019-01-11T08:15:22.875Z,3.20
2019-01-11T08:17:49.315Z,3.20
2019-01-11T08:20:16.008Z,3.30
2019-01-11T08:22:43.416Z,3.30
2019-01-11T08:25:12.197Z,3.30
2019-01-11T08:27:38.789Z,3.30
2019-01-11T08:30:11.503Z,3.40
2019-01-11T08:32:38.352Z,3.40
2019-01-11T08:35:08.695Z,3.30
2019-01-11T08:37:35.679Z,3.40
2019-01-11T08:40:04.249Z,3.40
2019-01-11T08:42:30.649Z,3.40
2019-01-11T08:44:58.706Z,3.30
2019-01-11T08:47:25.091Z,3.40
2019-01-11T08:49:51.596Z,3.40
2019-01-11T08:52:17.980Z,3.40
2019-01-11T08:54:44.376Z,3.40
2019-01-11T08:57:10.870Z,3.50
2019-01-11T08:59:37.712Z,3.50
2019-01-11T09:02:05.689Z,3.60
2019-01-11T09:04:32.326Z,3.60
2019-01-11T09:06:58.823Z,3.60
2019-01-11T09:09:25.518Z,3.60
2019-01-11T09:11:52.120Z,3.60
2019-01-11T09:14:21.526Z,3.60
2019-01-11T09:16:47.875Z,3.70
2019-01-11T09:19:14.621Z,3.70
2019-01-11T09:21:41.777Z,3.70
2019-01-11T09:24:08.714Z,3.70
2019-01-11T09:26:35.195Z,3.70
2019-01-11T09:29:02.465Z,3.80
2019-01-11T09:31:29.325Z,4.00
2019-01-11T09:33:55.743Z,3.80
2019-01-11T09:36:22.421Z,3.90
2019-01-11T09:38:48.971Z,4.10
2019-01-11T09:41:15.612Z,3.90
2019-01-11T09:43:42.348Z,4.00
2019-01-11T09:46:08.962Z,4.00
2019-01-11T09:48:35.802Z,3.90
2019-01-11T09:51:02.430Z,4.10
2019-01-11T09:53:29.025Z,4.10
2019-01-11T09:55:55.735Z,4.10
2019-01-11T09:58:22.204Z,4.20
2019-01-11T10:00:49.040Z,4.30
2019-01-11T10:03:15.790Z,4.30
2019-01-11T10:05:42.400Z,4.30
2019-01-11T10:08:09.078Z,4.30
2019-01-11T10:10:35.563Z,4.40
2019-01-11T10:13:02.048Z,4.40
2019-01-11T10:15:28.683Z,4.40
2019-01-11T10:17:55.179Z,4.40
2019-01-11T10:20:21.830Z,4.40
2019-01-11T10:22:48.430Z,4.50
2019-01-11T10:25:15.192Z,4.50
2019-01-11T10:27:41.632Z,4.60
2019-01-11T10:30:18.443Z,4.60
2019-01-11T10:32:45.080Z,4.60
2019-01-11T10:35:11.978Z,4.70
2019-01-11T10:37:38.619Z,4.70
2019-01-11T10:40:09.927Z,4.70
2019-01-11T10:42:36.540Z,4.70
2019-01-11T10:45:06.752Z,4.70
2019-01-11T10:47:33.420Z,4.70
2019-01-11T10:50:00.417Z,4.70
2019-01-11T10:52:26.927Z,4.80
2019-01-11T10:54:53.571Z,4.80
2019-01-11T10:57:20.243Z,4.80
2019-01-11T10:59:46.747Z,4.90
2019-01-11T11:02:13.335Z,4.90
2019-01-11T11:04:39.960Z,4.90
2019-01-11T11:07:09.012Z,5.00
2019-01-11T11:09:35.533Z,5.10
2019-01-11T11:12:02.227Z,5.10
2019-01-11T11:14:28.900Z,5.00
2019-01-11T11:16:57.344Z,5.20
2019-01-11T11:19:23.938Z,5.20
2019-01-11T11:21:50.472Z,5.30
2019-01-11T11:24:17.977Z,5.30
2019-01-11T11:26:44.527Z,5.40
2019-01-11T11:29:11.159Z,5.40
2019-01-11T11:31:37.756Z,5.50
2019-01-11T11:34:04.336Z,5.60
2019-01-11T11:36:30.734Z,5.60
2019-01-11T11:38:57.377Z,5.70
2019-01-11T11:41:23.862Z,5.70
2019-01-11T11:43:50.343Z,5.70
2019-01-11T11:46:16.959Z,5.80
2019-01-11T11:48:43.474Z,5.80
2019-01-11T11:51:10.034Z,5.70
2019-01-11T11:53:36.535Z,5.80
2019-01-11T11:56:03.477Z,5.80
2019-01-11T11:58:30.219Z,5.80
2019-01-11T12:00:56.912Z,5.80
2019-01-11T12:03:23.425Z,5.90
2019-01-11T12:05:50.156Z,5.90
2019-01-11T12:08:16.676Z,5.90
2019-01-11T12:10:43.494Z,5.90
2019-01-11T12:13:10.179Z,5.90
2019-01-11T12:15:37.166Z,5.70
2019-01-11T12:18:03.891Z,5.90
2019-01-11T12:20:32.621Z,6.00
2019-01-11T12:22:59.227Z,6.00
2019-01-11T12:25:25.734Z,6.10
2019-01-11T12:27:52.360Z,6.00
2019-01-11T12:30:18.932Z,6.10
2019-01-11T12:32:45.593Z,5.90
2019-01-11T12:35:12.188Z,6.20
2019-01-11T12:37:38.794Z,6.20
2019-01-11T12:40:08.495Z,6.20
2019-01-11T12:42:35.034Z,6.20
2019-01-11T12:45:01.653Z,6.30
2019-01-11T12:47:28.274Z,6.30
2019-01-11T12:49:54.840Z,6.30
2019-01-11T12:52:21.508Z,6.40
2019-01-11T12:54:48.025Z,6.40
2019-01-11T12:57:14.555Z,6.30
2019-01-11T12:59:41.124Z,6.50
2019-01-11T13:02:07.757Z,6.40
2019-01-11T13:04:34.347Z,6.50
2019-01-11T13:07:00.992Z,6.60
2019-01-11T13:09:27.653Z,6.60
2019-01-11T13:11:54.313Z,6.70
2019-01-11T13:14:20.691Z,6.70
2019-01-11T13:16:47.335Z,6.70
2019-01-11T13:19:13.980Z,6.70
2019-01-11T13:21:41.005Z,6.60
2019-01-11T13:24:07.571Z,6.80
2019-01-11T13:26:34.185Z,6.80
2019-01-11T13:29:00.624Z,6.90
2019-01-11T13:31:27.173Z,6.90
2019-01-11T13:33:53.892Z,7.00
2019-01-11T13:36:22.271Z,7.00
2019-01-11T13:38:48.796Z,7.10
2019-01-11T13:41:15.285Z,7.20
2019-01-11T13:43:41.830Z,7.20
2019-01-11T13:46:08.352Z,7.30
2019-01-11T13:48:34.910Z,7.30
2019-01-11T13:51:01.458Z,7.30
2019-01-11T13:53:28.062Z,7.40
2019-01-11T13:55:54.736Z,7.40
2019-01-11T13:58:21.293Z,7.40
2019-01-11T14:00:47.926Z,7.30
2019-01-11T14:03:14.513Z,7.40
2019-01-11T14:05:41.108Z,7.40
2019-01-11T14:08:08.686Z,7.40
2019-01-11T14:10:35.267Z,7.40
2019-01-11T14:13:01.998Z,7.50
2019-01-11T14:15:28.493Z,7.40
2019-01-11T14:17:54.961Z,7.50
2019-01-11T14:20:21.467Z,7.40
2019-01-11T14:22:47.987Z,7.40
2019-01-11T14:25:14.579Z,7.40
2019-01-11T14:27:41.246Z,7.40
2019-01-11T14:30:11.347Z,7.40
2019-01-11T14:32:37.908Z,7.40
2019-01-11T14:35:06.493Z,7.40
2019-01-11T14:37:33.205Z,7.30
2019-01-11T14:39:59.673Z,7.20
2019-01-11T14:42:26.148Z,7.30
2019-01-11T14:44:52.513Z,7.20
2019-01-11T14:47:20.918Z,7.30
2019-01-11T14:49:47.328Z,7.30
2019-01-11T14:52:20.136Z,7.30
2019-01-11T14:54:42.329Z,7.30
2019-01-11T14:57:08.696Z,7.30
2019-01-11T14:59:35.321Z,7.40
2019-01-11T15:02:01.922Z,7.30
2019-01-11T15:04:28.320Z,7.30
2019-01-11T15:06:54.801Z,7.30
2019-01-11T15:09:21.232Z,7.30
2019-01-11T15:11:48.699Z,7.30
2019-01-11T15:14:15.096Z,7.30
2019-01-11T15:16:41.504Z,7.30
2019-01-11T15:19:13.884Z,7.30
2019-01-11T15:21:36.590Z,7.30
2019-01-11T15:24:03.182Z,7.30
2019-01-11T15:26:29.670Z,7.20
2019-01-11T15:28:56.186Z,7.20
2019-01-11T15:31:22.659Z,7.10
2019-01-11T15:33:49.184Z,7.10
2019-01-11T15:36:15.682Z,7.20
2019-01-11T15:38:42.246Z,7.20
2019-01-11T15:41:08.859Z,7.20
2019-01-11T15:43:35.366Z,7.20
2019-01-11T15:46:02.691Z,7.20
2019-01-11T15:48:41.963Z,7.30
2019-01-11T15:51:08.539Z,7.20
2019-01-11T15:53:36.324Z,7.20
2019-01-11T15:56:04.110Z,7.30
2019-01-11T15:58:30.674Z,7.20
2019-01-11T16:00:57.215Z,7.20
2019-01-11T16:03:26.304Z,7.20
2019-01-11T16:06:16.476Z,7.10
2019-01-11T16:09:01.531Z,7.10
2019-01-11T16:11:46.798Z,7.10
2019-01-11T16:14:23.852Z,7.10
2019-01-11T16:16:50.344Z,7.10
2019-01-11T16:19:16.860Z,7.10
2019-01-11T16:21:43.431Z,7.10
2019-01-11T16:24:10.066Z,7.00
2019-01-11T16:26:36.758Z,7.00
2019-01-11T16:29:03.764Z,5.60
2019-01-11T16:31:30.285Z,7.10
2019-01-11T16:33:56.736Z,7.10
2019-01-11T16:36:23.217Z,7.00
2019-01-11T16:38:49.673Z,7.10
2019-01-11T16:41:16.186Z,7.10
2019-01-11T16:43:42.649Z,7.10
2019-01-11T16:46:09.118Z,7.10
2019-01-11T16:48:35.644Z,7.00
2019-01-11T16:51:02.197Z,7.10
2019-01-11T16:53:28.720Z,7.00
2019-01-11T16:55:55.098Z,7.10
2019-01-11T16:58:21.901Z,7.00
2019-01-11T17:00:48.412Z,7.00
2019-01-11T17:03:15.022Z,7.10
2019-01-11T17:05:41.690Z,7.00
2019-01-11T17:08:08.064Z,7.10
2019-01-11T17:10:34.700Z,7.10
2019-01-11T17:13:01.049Z,7.00
2019-01-11T17:15:28.602Z,7.00
2019-01-11T17:17:55.105Z,7.00
2019-01-11T17:20:21.709Z,7.00
2019-01-11T17:22:53.021Z,7.00
2019-01-11T17:25:17.763Z,7.00
2019-01-11T17:27:44.340Z,6.50
2019-01-11T17:30:13.829Z,7.00
2019-01-11T17:32:40.462Z,7.00
2019-01-11T17:35:07.129Z,7.00
2019-01-11T17:37:33.546Z,7.00
2019-01-11T17:40:00.607Z,7.00
2019-01-11T17:42:27.048Z,6.90
2019-01-11T17:44:53.557Z,7.00
2019-01-11T17:47:20.031Z,7.00
2019-01-11T17:49:46.829Z,7.00
2019-01-11T17:52:13.334Z,7.00
2019-01-11T17:54:39.964Z,7.00
2019-01-11T17:57:06.443Z,7.00
2019-01-11T17:59:33.596Z,7.00
2019-01-11T18:02:00.121Z,7.00
2019-01-11T18:04:26.654Z,7.00
2019-01-11T18:06:53.117Z,7.00
2019-01-11T18:09:20.160Z,7.00
2019-01-11T18:11:46.501Z,7.00
2019-01-11T18:14:13.352Z,7.00
2019-01-11T18:16:39.932Z,7.00
2019-01-11T18:19:06.448Z,7.00
2019-01-11T18:21:34.354Z,7.00
2019-01-11T18:24:00.887Z,6.90
2019-01-11T18:26:27.491Z,6.90
2019-01-11T18:28:54.391Z,6.90
2019-01-11T18:31:21.030Z,6.90
2019-01-11T18:33:47.518Z,6.90
2019-01-11T18:36:14.149Z,6.90
2019-01-11T18:38:40.732Z,6.90
2019-01-11T18:41:07.254Z,6.90
2019-01-11T18:43:33.737Z,6.90
2019-01-11T18:46:00.259Z,6.90
2019-01-11T18:48:26.756Z,7.00
2019-01-11T18:50:53.292Z,6.90
2019-01-11T18:53:19.668Z,7.00
2019-01-11T18:55:47.019Z,6.90
2019-01-11T18:58:13.480Z,6.90
2019-01-11T19:00:40.380Z,6.90
2019-01-11T19:03:07.193Z,6.90
2019-01-11T19:05:33.832Z,6.90
2019-01-11T19:08:00.284Z,6.90
2019-01-11T19:10:26.736Z,6.90
2019-01-11T19:12:53.355Z,6.90
2019-01-11T19:15:23.512Z,6.90
2019-01-11T19:17:50.115Z,6.90
2019-01-11T19:20:19.524Z,6.90
2019-01-11T19:22:46.196Z,6.90
2019-01-11T19:25:12.992Z,6.90
2019-01-11T19:27:39.763Z,6.90
2019-01-11T19:30:13.429Z,7.00
2019-01-11T19:32:40.329Z,7.00
2019-01-11T19:35:06.919Z,6.90
2019-01-11T19:37:33.486Z,6.90
2019-01-11T19:39:59.955Z,6.90
2019-01-11T19:42:26.473Z,6.90
2019-01-11T19:44:52.969Z,6.90
2019-01-11T19:47:19.596Z,6.90
2019-01-11T19:49:46.082Z,6.90
2019-01-11T19:52:12.593Z,6.90
2019-01-11T19:54:38.995Z,6.90
2019-01-11T19:57:05.638Z,6.90
2019-01-11T19:59:32.098Z,6.90
2019-01-11T20:01:58.638Z,6.90
2019-01-11T20:04:25.167Z,6.90
2019-01-11T20:06:51.735Z,6.90
2019-01-11T20:09:18.539Z,6.90
2019-01-11T20:11:45.197Z,6.90
2019-01-11T20:14:12.649Z,6.90
2019-01-11T20:16:39.375Z,6.90
2019-01-11T20:19:05.943Z,6.90
2019-01-11T20:21:33.398Z,6.80
2019-01-11T20:23:59.853Z,6.80
2019-01-11T20:26:26.481Z,6.80
2019-01-11T20:28:53.739Z,6.80
2019-01-11T20:31:21.081Z,6.80
2019-01-11T20:33:47.772Z,6.90
2019-01-11T20:36:14.516Z,6.80
2019-01-11T20:38:41.221Z,6.80
2019-01-11T20:41:07.808Z,6.80
2019-01-11T20:43:34.402Z,6.80
2019-01-11T20:46:03.423Z,6.90
2019-01-11T20:48:29.306Z,6.80
2019-01-11T20:50:55.984Z,6.80
2019-01-11T20:53:22.536Z,6.80
2019-01-11T20:55:49.012Z,6.80
2019-01-11T20:58:15.635Z,6.80
2019-01-11T21:00:42.373Z,6.80
2019-01-11T21:03:08.989Z,6.80
2019-01-11T21:05:35.675Z,6.80
2019-01-11T21:08:03.073Z,6.80
2019-01-11T21:10:29.729Z,6.80
2019-01-11T21:12:56.428Z,6.70
2019-01-11T21:15:23.256Z,6.70
2019-01-11T21:17:50.191Z,6.80
2019-01-11T21:20:18.080Z,6.80
2019-01-11T21:22:44.758Z,6.80
2019-01-11T21:25:13.382Z,6.80
2019-01-11T21:27:40.212Z,6.80
2019-01-11T21:30:15.567Z,6.80
2019-01-11T21:32:42.846Z,6.80
2019-01-11T21:35:09.457Z,6.80
2019-01-11T21:37:35.977Z,6.90
2019-01-11T21:40:04.975Z,6.80
2019-01-11T21:42:31.628Z,6.80
2019-01-11T21:44:58.412Z,6.80
2019-01-11T21:47:24.900Z,6.80
2019-01-11T21:49:51.346Z,6.80
2019-01-11T21:52:18.012Z,6.70
2019-01-11T21:54:44.625Z,6.80
2019-01-11T21:57:12.704Z,6.60
2019-01-11T21:59:41.013Z,6.80
2019-01-11T22:02:07.676Z,6.80
2019-01-11T22:04:34.273Z,6.80
2019-01-11T22:07:00.841Z,6.80
2019-01-11T22:09:27.540Z,6.70
2019-01-11T22:11:54.179Z,6.70
2019-01-11T22:14:22.182Z,6.70
2019-01-11T22:16:48.869Z,6.70
2019-01-11T22:19:15.381Z,6.70
2019-01-11T22:21:42.021Z,6.70
2019-01-11T22:24:08.638Z,6.70
2019-01-11T22:26:35.261Z,6.70
2019-01-11T22:29:01.842Z,6.70
2019-01-11T22:31:28.467Z,6.60
2019-01-11T22:33:55.061Z,6.60
2019-01-11T22:36:21.431Z,6.60
2019-01-11T22:38:48.396Z,6.70
2019-01-11T22:41:15.288Z,6.60
2019-01-11T22:43:42.245Z,6.60
2019-01-11T22:46:09.025Z,6.60
2019-01-11T22:48:37.686Z,6.70
2019-01-11T22:51:04.571Z,6.70
2019-01-11T22:53:31.302Z,6.70
2019-01-11T22:55:57.808Z,6.70
2019-01-11T22:58:24.365Z,6.70
2019-01-11T23:01:03.672Z,6.70
2019-01-11T23:03:33.924Z,6.70
2019-01-11T23:06:10.041Z,6.70
2019-01-11T23:08:36.803Z,6.70
2019-01-11T23:11:13.067Z,6.60
2019-01-11T23:13:39.685Z,6.60
2019-01-11T23:16:08.392Z,6.60
2019-01-11T23:18:35.100Z,6.50
2019-01-11T23:21:02.113Z,6.50
2019-01-11T23:23:28.558Z,6.60
2019-01-11T23:25:55.164Z,6.60
2019-01-11T23:28:21.804Z,6.50
2019-01-11T23:30:49.919Z,6.50
2019-01-11T23:33:16.474Z,6.50
2019-01-11T23:35:43.079Z,6.50
2019-01-11T23:38:09.718Z,6.50
2019-01-11T23:40:36.380Z,6.50
2019-01-11T23:43:03.594Z,6.50
2019-01-11T23:45:30.213Z,6.40
2019-01-11T23:47:56.831Z,6.50
2019-01-11T23:50:23.484Z,6.50
2019-01-11T23:52:50.167Z,6.50
2019-01-11T23:55:16.778Z,6.50
2019-01-11T23:57:43.380Z,6.50
